Time;durP1;ratioP1;P1;durP2;ratioP2;P2;SDS_P1;SDS_P2;PMS_P1;PMS_P2;Temp;Humidity;BMP_temperature;BMP_pressure;BME280_temperature;BME280_humidity;BME280_pressure;Samples;Min_cycle;Max_cycle;Signal;HPM_P1;HPM_P2
2022/03/23 00:00:14;;;;;;;0.77;0.77;;;6.20;80.50;;;;;;4955941;29;20454;-82
2022/03/23 00:02:41;;;;;;;4.00;0.70;;;6.10;79.80;;;;;;4956252;29;20458;-82
2022/03/23 00:05:08;;;;;;;0.50;0.50;;;6.00;79.80;;;;;;4955849;29;20462;-82
2022/03/23 00:07:35;;;;;;;0.40;0.40;;;5.90;80.60;;;;;;4955935;29;20453;-82
2022/03/23 00:10:04;;;;;;;2.50;1.90;;;5.90;80.80;;;;;;4955676;29;20474;-82
2022/03/23 00:12:30;;;;;;;0.80;0.80;;;5.90;80.60;;;;;;4955555;29;20563;-82
2022/03/23 00:14:57;;;;;;;0.60;0.47;;;5.80;81.20;;;;;;4955553;29;20454;-82
2022/03/23 00:17:24;;;;;;;2.40;1.03;;;5.80;81.30;;;;;;4955548;29;20454;-82
2022/03/23 00:19:50;;;;;;;0.40;0.40;;;5.70;82.30;;;;;;4955151;29;20977;-82
2022/03/23 00:22:18;;;;;;;0.93;0.83;;;5.70;82.10;;;;;;4955514;29;20450;-82
2022/03/23 00:24:45;;;;;;;1.33;1.23;;;5.60;82.00;;;;;;4955476;29;20474;-82
2022/03/23 00:27:13;;;;;;;0.40;0.30;;;5.60;82.20;;;;;;4955485;29;20450;-82
2022/03/23 00:29:40;;;;;;;1.20;0.53;;;5.50;83.00;;;;;;4955504;29;20482;-80
2022/03/23 00:32:07;;;;;;;2.40;0.87;;;5.50;83.90;;;;;;4955267;29;20477;-80
2022/03/23 00:34:34;;;;;;;0.40;0.40;;;5.50;83.90;;;;;;4955019;29;20498;-81
2022/03/23 00:37:01;;;;;;;1.60;1.47;;;5.50;85.00;;;;;;4955238;29;20458;-81
2022/03/23 00:39:28;;;;;;;1.80;0.80;;;5.50;85.60;;;;;;4954799;29;20477;-81
2022/03/23 00:41:56;;;;;;;0.43;0.30;;;5.50;84.60;;;;;;4955263;29;20454;-81
2022/03/23 00:44:24;;;;;;;0.63;0.63;;;5.50;85.50;;;;;;4957805;28;20450;-81
2022/03/23 00:46:51;;;;;;;1.00;1.00;;;5.50;85.60;;;;;;4959181;29;20450;-81
2022/03/23 00:49:18;;;;;;;0.77;0.63;;;5.50;86.00;;;;;;4958720;29;21008;-81
2022/03/23 00:51:45;;;;;;;0.50;0.50;;;5.50;85.90;;;;;;4958987;29;20450;-80
2022/03/23 00:54:12;;;;;;;0.87;0.67;;;5.50;85.90;;;;;;4958683;29;21025;-80
2022/03/23 00:56:39;;;;;;;0.40;0.40;;;5.50;87.10;;;;;;4959049;29;20541;-82
2022/03/23 00:59:07;;;;;;;0.47;0.47;;;5.40;87.40;;;;;;4958934;29;20470;-82
2022/03/23 01:01:35;;;;;;;0.67;0.67;;;5.40;87.40;;;;;;4958958;29;20516;-81
2022/03/23 01:04:02;;;;;;;1.90;0.60;;;5.40;88.40;;;;;;4958895;29;20449;-82
2022/03/23 01:06:29;;;;;;;1.77;1.17;;;5.30;89.10;;;;;;4958716;29;20457;-82
2022/03/23 01:08:55;;;;;;;0.40;0.40;;;5.30;89.50;;;;;;4958715;29;20474;-80
2022/03/23 01:11:22;;;;;;;0.60;0.60;;;5.20;90.20;;;;;;4958705;29;20465;-80
2022/03/23 01:13:49;;;;;;;0.40;0.40;;;5.20;90.40;;;;;;4958593;29;20540;-80
2022/03/23 01:16:16;;;;;;;0.50;0.50;;;5.10;90.90;;;;;;4958647;29;20438;-80
2022/03/23 01:18:45;;;;;;;1.27;0.50;;;5.10;91.10;;;;;;4958182;29;20529;-80
2022/03/23 01:21:13;;;;;;;0.60;0.60;;;5.00;91.40;;;;;;4958223;29;20958;-80
2022/03/23 01:23:40;;;;;;;0.30;0.30;;;5.00;90.60;;;;;;4958498;29;20457;-82
2022/03/23 01:26:07;;;;;;;0.30;0.30;;;5.00;91.00;;;;;;4958546;29;20457;-81
2022/03/23 01:28:34;;;;;;;0.67;0.67;;;5.00;90.60;;;;;;4958377;29;20470;-80
2022/03/23 01:31:01;;;;;;;1.57;0.50;;;5.00;90.80;;;;;;4958119;29;20950;-80
2022/03/23 01:33:28;;;;;;;0.40;0.40;;;5.10;91.60;;;;;;4958016;29;20509;-82
2022/03/23 01:35:56;;;;;;;0.40;0.30;;;5.00;92.00;;;;;;4958409;29;20446;-82
2022/03/23 01:38:23;;;;;;;0.67;0.67;;;5.00;92.10;;;;;;4957994;29;20500;-82
2022/03/23 01:40:50;;;;;;;0.67;0.50;;;4.90;92.00;;;;;;4958301;29;20517;-82
2022/03/23 01:43:16;;;;;;;0.40;0.40;;;4.90;93.00;;;;;;4958163;29;20446;-82
2022/03/23 01:45:43;;;;;;;0.80;0.80;;;4.80;93.10;;;;;;4957894;29;20457;-82
2022/03/23 01:48:10;;;;;;;0.70;0.43;;;4.80;93.50;;;;;;4957868;29;20970;-81
2022/03/23 01:50:37;;;;;;;4.20;0.57;;;4.80;93.70;;;;;;4957800;29;20453;-82
2022/03/23 01:53:05;;;;;;;0.67;0.67;;;4.80;93.90;;;;;;4957716;29;20509;-82
2022/03/23 01:55:32;;;;;;;0.63;0.63;;;4.80;93.50;;;;;;4957334;28;20435;-82
2022/03/23 01:57:59;;;;;;;0.40;0.40;;;4.80;94.00;;;;;;4957537;29;20946;-82
2022/03/23 02:00:26;;;;;;;0.80;0.80;;;4.80;94.50;;;;;;4957878;29;20461;-82
2022/03/23 02:02:53;;;;;;;0.40;0.40;;;4.70;94.50;;;;;;4957991;29;20529;-82
2022/03/23 02:05:20;;;;;;;2.80;1.20;;;4.70;94.10;;;;;;4957834;29;20461;-82
2022/03/23 02:07:47;;;;;;;1.03;1.03;;;4.70;94.20;;;;;;4957767;29;20497;-82
2022/03/23 02:10:15;;;;;;;0.30;0.30;;;4.70;94.20;;;;;;4957719;29;20454;-82
2022/03/23 02:12:42;;;;;;;0.40;0.33;;;4.70;93.90;;;;;;4957621;29;20482;-82
2022/03/23 02:15:14;;;;;;;0.93;0.90;;;4.80;94.10;;;;;;4957566;29;20463;-80
2022/03/23 02:17:42;;;;;;;0.77;0.40;;;4.80;93.50;;;;;;4957243;29;20797;-80
2022/03/23 02:20:10;;;;;;;0.30;0.30;;;4.80;94.10;;;;;;4957485;29;20533;-80
2022/03/23 02:22:38;;;;;;;1.70;1.40;;;4.70;93.70;;;;;;4957390;29;20450;-80
2022/03/23 02:25:07;;;;;;;0.40;0.40;;;4.70;94.30;;;;;;4957829;29;20471;-80
2022/03/23 02:27:36;;;;;;;0.77;0.70;;;4.70;95.60;;;;;;4957071;29;20961;-80
2022/03/23 02:30:05;;;;;;;0.80;0.63;;;4.70;96.10;;;;;;4957241;29;20490;-80
2022/03/23 02:32:31;;;;;;;0.70;0.40;;;4.60;95.80;;;;;;4957253;29;20577;-80
2022/03/23 02:34:59;;;;;;;0.30;0.30;;;4.60;96.40;;;;;;4957243;29;20465;-80
2022/03/23 02:37:26;;;;;;;4.40;0.73;;;4.60;96.50;;;;;;4957164;29;20453;-80
2022/03/23 02:39:54;;;;;;;1.43;0.67;;;4.60;96.00;;;;;;4956672;29;20493;-81
2022/03/23 02:42:22;;;;;;;0.60;0.50;;;4.60;95.60;;;;;;4956876;29;20434;-81
2022/03/23 02:44:49;;;;;;;0.40;0.40;;;4.60;96.30;;;;;;4957068;29;20935;-80
2022/03/23 02:47:16;;;;;;;1.63;0.87;;;4.60;96.90;;;;;;4956750;29;20950;-82
2022/03/23 02:49:43;;;;;;;1.70;0.73;;;4.50;96.10;;;;;;4956978;29;20839;-82
2022/03/23 02:52:09;;;;;;;0.40;0.40;;;4.40;96.20;;;;;;4956656;29;20435;-81
2022/03/23 03:03:34;;;;;;;0.80;0.40;;;4.10;98.30;;;;;;4956868;29;20503;-82
2022/03/23 03:06:03;;;;;;;1.20;1.03;;;4.10;99.20;;;;;;4956446;28;20477;-82
2022/03/23 03:08:48;;;;;;;0.30;0.30;;;4.00;99.40;;;;;;4955866;29;20474;-81
2022/03/23 03:11:16;;;;;;;0.70;0.70;;;4.00;99.70;;;;;;4956815;29;20442;-81
2022/03/23 03:13:48;;;;;;;0.40;0.40;;;3.90;99.90;;;;;;4956302;29;20853;-81
2022/03/23 03:16:15;;;;;;;0.83;0.83;;;3.90;99.90;;;;;;4957187;29;20458;-80
2022/03/23 03:18:41;;;;;;;0.90;0.40;;;3.80;99.90;;;;;;4956327;29;21008;-80
2022/03/23 03:21:09;;;;;;;0.30;0.30;;;3.80;99.90;;;;;;4956219;29;20435;-81
2022/03/23 03:23:38;;;;;;;0.70;0.70;;;3.80;99.90;;;;;;4956037;29;20950;-80
2022/03/23 03:26:06;;;;;;;0.40;0.40;;;3.80;99.90;;;;;;4955981;29;20453;-81
2022/03/23 03:28:33;;;;;;;0.70;0.70;;;3.80;99.90;;;;;;4956208;29;20466;-82
2022/03/23 03:31:02;;;;;;;0.50;0.50;;;3.80;99.90;;;;;;4956173;29;20450;-82
2022/03/23 03:33:28;;;;;;;0.40;0.30;;;3.90;99.90;;;;;;4955866;29;20482;-82
2022/03/23 03:35:55;;;;;;;0.50;0.40;;;3.90;99.90;;;;;;4958516;29;20815;-82
2022/03/23 03:38:22;;;;;;;0.60;0.40;;;3.90;99.90;;;;;;4955443;29;20871;-82
2022/03/23 03:40:49;;;;;;;0.30;0.27;;;3.90;99.90;;;;;;4955976;29;20446;-82
2022/03/23 03:43:16;;;;;;;0.30;0.30;;;3.90;99.90;;;;;;4955710;29;20946;-82
2022/03/23 03:45:43;;;;;;;0.30;0.30;;;3.90;99.90;;;;;;4955976;29;20454;-82
2022/03/23 03:48:12;;;;;;;3.60;0.70;;;3.90;99.90;;;;;;4955818;29;20482;-82
2022/03/23 03:50:39;;;;;;;1.43;0.47;;;3.90;99.90;;;;;;4955906;29;20453;-82
2022/03/23 03:53:06;;;;;;;0.30;0.30;;;3.90;99.90;;;;;;4955916;29;20577;-82
2022/03/23 03:55:33;;;;;;;0.80;0.80;;;3.80;99.90;;;;;;4955780;29;20466;-82
2022/03/23 03:58:00;;;;;;;0.73;0.73;;;3.70;99.90;;;;;;4955708;29;20450;-82
2022/03/23 04:00:27;;;;;;;0.60;0.50;;;3.70;99.90;;;;;;4955466;29;20442;-82
2022/03/23 04:02:53;;;;;;;0.93;0.80;;;3.60;99.90;;;;;;4955722;29;20446;-82
2022/03/23 04:05:22;;;;;;;0.43;0.43;;;3.60;99.90;;;;;;4955415;29;20453;-82
2022/03/23 04:07:49;;;;;;;2.67;0.57;;;3.60;99.90;;;;;;4955350;29;20454;-82
2022/03/23 04:10:16;;;;;;;0.40;0.30;;;3.60;99.90;;;;;;4955710;29;20447;-82
2022/03/23 04:12:42;;;;;;;0.80;0.60;;;3.60;99.90;;;;;;4955605;29;20914;-82
2022/03/23 04:15:09;;;;;;;0.30;0.30;;;3.60;99.90;;;;;;4955213;29;20473;-82
2022/03/23 04:17:36;;;;;;;0.97;0.97;;;3.50;99.90;;;;;;4955172;28;20442;-82
2022/03/23 04:20:04;;;;;;;0.63;0.60;;;3.50;99.90;;;;;;4955245;29;20470;-82
2022/03/23 04:22:32;;;;;;;0.40;0.40;;;3.50;99.90;;;;;;4955146;29;20456;-82
2022/03/23 04:24:58;;;;;;;0.73;0.73;;;3.50;99.90;;;;;;4955198;29;20526;-82
2022/03/23 04:27:25;;;;;;;0.30;0.30;;;3.40;99.90;;;;;;4955131;29;20465;-82
2022/03/23 04:29:52;;;;;;;0.77;0.77;;;3.40;99.90;;;;;;4955305;29;20470;-82
2022/03/23 04:32:19;;;;;;;0.30;0.30;;;3.40;99.90;;;;;;4955393;29;20449;-82
2022/03/23 04:34:45;;;;;;;0.43;0.43;;;3.40;99.90;;;;;;4955271;29;20490;-82
2022/03/23 04:37:12;;;;;;;1.50;0.60;;;3.40;99.90;;;;;;4955291;29;20477;-82
2022/03/23 04:39:41;;;;;;;0.90;0.67;;;3.30;99.90;;;;;;4954837;29;20485;-82
2022/03/23 04:42:08;;;;;;;0.70;0.70;;;3.30;99.90;;;;;;4954983;29;20458;-82
2022/03/23 04:44:35;;;;;;;0.33;0.33;;;3.40;99.90;;;;;;4955200;29;20481;-82
2022/03/23 04:47:01;;;;;;;0.50;0.50;;;3.40;99.90;;;;;;4954916;29;20457;-82
2022/03/23 04:49:28;;;;;;;0.63;0.50;;;3.40;99.90;;;;;;4955179;29;20483;-82
2022/03/23 04:51:55;;;;;;;0.77;0.30;;;3.40;99.90;;;;;;4955222;29;20453;-82
2022/03/23 04:54:22;;;;;;;0.50;0.50;;;3.40;99.90;;;;;;4954859;29;20486;-82
2022/03/23 04:56:50;;;;;;;0.30;0.30;;;3.30;99.90;;;;;;4954916;29;20549;-82
2022/03/23 04:59:17;;;;;;;0.40;0.40;;;3.30;99.90;;;;;;4955158;29;20481;-82
2022/03/23 05:01:44;;;;;;;0.67;0.67;;;3.30;99.90;;;;;;4954842;29;20461;-82
2022/03/23 05:04:11;;;;;;;0.43;0.43;;;3.30;99.90;;;;;;4954827;29;20458;-82
2022/03/23 05:06:38;;;;;;;2.97;1.73;;;3.40;99.90;;;;;;4955082;29;20450;-82
2022/03/23 05:09:04;;;;;;;0.60;0.30;;;3.30;99.90;;;;;;4954734;29;20477;-82
2022/03/23 05:11:31;;;;;;;0.30;0.30;;;3.30;99.90;;;;;;4955828;29;20454;-82
2022/03/23 05:13:59;;;;;;;0.60;0.50;;;3.20;99.90;;;;;;4954948;29;20490;-81
2022/03/23 05:16:26;;;;;;;1.33;1.33;;;3.20;99.90;;;;;;4954952;29;20451;-82
2022/03/23 05:18:52;;;;;;;0.50;0.50;;;3.20;99.90;;;;;;4954601;29;20474;-82
2022/03/23 05:21:19;;;;;;;0.30;0.30;;;3.20;99.90;;;;;;4954883;29;20462;-82
2022/03/23 05:23:46;;;;;;;0.40;0.40;;;3.20;99.90;;;;;;4954993;29;20447;-82
2022/03/23 05:26:13;;;;;;;0.57;0.50;;;3.20;99.90;;;;;;4954584;29;20965;-82
2022/03/23 05:28:40;;;;;;;0.30;0.30;;;3.20;99.90;;;;;;4954528;29;20481;-82
2022/03/23 05:31:08;;;;;;;0.30;0.30;;;3.20;99.90;;;;;;4956586;28;20435;-82
2022/03/23 05:33:35;;;;;;;2.13;1.93;;;3.20;99.90;;;;;;4958020;29;21004;-82
2022/03/23 05:36:01;;;;;;;0.30;0.20;;;3.20;99.90;;;;;;4958354;29;20456;-82
2022/03/23 05:38:28;;;;;;;1.47;1.17;;;3.20;99.90;;;;;;4957930;29;20486;-82
2022/03/23 05:40:55;;;;;;;3.20;1.23;;;3.20;99.90;;;;;;4958231;29;20456;-81
2022/03/23 05:43:22;;;;;;;3.70;0.50;;;3.30;99.90;;;;;;4958169;29;20449;-81
2022/03/23 05:45:49;;;;;;;0.30;0.30;;;3.30;99.90;;;;;;4957798;29;20992;-81
2022/03/23 05:48:17;;;;;;;0.40;0.40;;;3.40;99.90;;;;;;4957747;29;20515;-81
2022/03/23 05:50:44;;;;;;;0.80;0.80;;;3.30;99.90;;;;;;4958100;29;20455;-81
2022/03/23 05:53:11;;;;;;;1.07;0.93;;;3.40;99.90;;;;;;4957740;29;20453;-81
2022/03/23 05:55:38;;;;;;;0.70;0.70;;;3.40;99.90;;;;;;4958002;29;20450;-81
2022/03/23 05:58:04;;;;;;;0.30;0.20;;;3.40;99.90;;;;;;4957560;29;20975;-80
2022/03/23 06:00:34;;;;;;;0.77;0.77;;;3.50;99.90;;;;;;4957671;29;20462;-80
2022/03/23 06:03:00;;;;;;;0.50;0.50;;;3.50;99.90;;;;;;4957531;29;20578;-80
2022/03/23 06:05:28;;;;;;;0.73;0.57;;;3.50;99.90;;;;;;4957535;29;20450;-80
2022/03/23 06:07:55;;;;;;;0.80;0.80;;;3.60;99.90;;;;;;4957408;29;20457;-80
2022/03/23 06:10:22;;;;;;;0.40;0.40;;;3.70;99.90;;;;;;4957700;29;20450;-81
2022/03/23 06:12:49;;;;;;;0.40;0.40;;;3.70;99.90;;;;;;4957667;29;20439;-82
2022/03/23 06:15:16;;;;;;;0.60;0.60;;;3.70;99.90;;;;;;4957227;29;20489;-81
2022/03/23 06:17:42;;;;;;;0.67;0.67;;;3.80;99.90;;;;;;4957675;29;20461;-82
2022/03/23 06:20:10;;;;;;;0.50;0.50;;;3.90;99.90;;;;;;4957459;29;20478;-82
2022/03/23 06:22:38;;;;;;;0.53;0.53;;;4.00;99.90;;;;;;4957255;29;20485;-82
2022/03/23 06:25:07;;;;;;;0.73;0.50;;;4.20;99.90;;;;;;4957464;29;20807;-82
2022/03/23 06:27:34;;;;;;;0.40;0.40;;;4.70;99.90;;;;;;4957327;29;20527;-80
2022/03/23 06:30:01;;;;;;;0.70;0.60;;;5.60;99.90;;;;;;4957268;29;20477;-80
2022/03/23 06:32:28;;;;;;;0.60;0.60;;;6.50;99.90;;;;;;4957281;29;20485;-80
2022/03/23 06:34:55;;;;;;;5.87;1.07;;;7.30;99.90;;;;;;4956812;29;21034;-80
2022/03/23 06:37:22;;;;;;;0.80;0.80;;;7.80;99.90;;;;;;4957117;29;20454;-80
2022/03/23 06:39:50;;;;;;;4.70;1.00;;;7.80;99.90;;;;;;4956577;29;20525;-80
2022/03/23 06:42:17;;;;;;;3.70;0.93;;;7.50;99.90;;;;;;4956584;28;20450;-81
2022/03/23 06:44:44;;;;;;;0.77;0.77;;;7.10;99.90;;;;;;4956914;29;20439;-81
2022/03/23 06:47:11;;;;;;;0.83;0.83;;;6.70;99.90;;;;;;4957078;29;20458;-80
2022/03/23 06:49:37;;;;;;;1.67;1.03;;;6.40;99.90;;;;;;4956681;29;20474;-81
2022/03/23 06:52:05;;;;;;;1.10;0.90;;;6.10;99.90;;;;;;4956938;29;20458;-81
2022/03/23 06:54:32;;;;;;;1.93;0.77;;;5.90;99.90;;;;;;4956898;29;20482;-81
2022/03/23 06:57:00;;;;;;;0.50;0.50;;;5.80;99.90;;;;;;4956875;29;20458;-81
2022/03/23 06:59:27;;;;;;;0.73;0.67;;;5.70;99.90;;;;;;4956393;29;21001;-81
2022/03/23 07:01:53;;;;;;;0.50;0.40;;;5.70;99.90;;;;;;4956815;29;20454;-81
2022/03/23 07:04:24;;;;;;;1.30;1.20;;;5.70;99.90;;;;;;4956421;29;20454;-81
2022/03/23 07:06:51;;;;;;;1.00;1.00;;;5.70;99.90;;;;;;4956995;29;20445;-81
2022/03/23 07:09:32;;;;;;;0.87;0.87;;;5.70;99.90;;;;;;4956227;29;20473;-82
2022/03/23 07:12:02;;;;;;;0.87;0.70;;;5.70;99.90;;;;;;4956623;29;20445;-81
2022/03/23 07:14:30;;;;;;;0.40;0.40;;;5.80;99.90;;;;;;4956442;29;20482;-81
2022/03/23 07:16:57;;;;;;;1.40;0.80;;;5.90;99.90;;;;;;4956117;29;20442;-81
2022/03/23 07:19:24;;;;;;;1.67;0.83;;;6.10;99.90;;;;;;4956328;29;20466;-81
2022/03/23 07:21:51;;;;;;;0.97;0.73;;;6.20;99.90;;;;;;4961862;29;20866;-81
2022/03/23 07:24:18;;;;;;;1.63;0.70;;;6.20;99.90;;;;;;4956113;29;20447;-80
2022/03/23 07:26:45;;;;;;;0.63;0.63;;;6.30;99.90;;;;;;4956266;29;20445;-81
2022/03/23 07:29:15;;;;;;;0.70;0.70;;;6.30;99.90;;;;;;4956163;29;20477;-80
2022/03/23 07:31:42;;;;;;;1.00;0.67;;;6.50;99.90;;;;;;4956561;29;21000;-81
2022/03/23 07:34:09;;;;;;;4.00;1.27;;;6.50;99.90;;;;;;4956068;29;20490;-81
2022/03/23 07:36:37;;;;;;;5.37;0.67;;;6.60;99.90;;;;;;4955946;29;20446;-81
2022/03/23 07:39:04;;;;;;;0.50;0.50;;;6.60;99.90;;;;;;4955671;29;20529;-80
2022/03/23 07:41:30;;;;;;;4.50;0.70;;;6.70;99.90;;;;;;4955824;29;20439;-81
2022/03/23 07:43:57;;;;;;;1.27;0.80;;;6.80;99.90;;;;;;4955987;29;20454;-81
2022/03/23 07:46:26;;;;;;;1.70;1.30;;;6.90;99.90;;;;;;4955963;29;20442;-81
2022/03/23 07:48:52;;;;;;;0.60;0.50;;;7.00;99.90;;;;;;4955878;29;20555;-81
2022/03/23 07:51:19;;;;;;;1.27;1.23;;;7.10;99.90;;;;;;4955887;29;20450;-81
2022/03/23 07:53:46;;;;;;;0.87;0.83;;;7.20;99.90;;;;;;4955408;28;20485;-82
2022/03/23 07:56:13;;;;;;;3.17;0.60;;;7.40;99.90;;;;;;4955956;29;20822;-81
2022/03/23 07:58:39;;;;;;;7.10;1.23;;;7.50;99.90;;;;;;4955653;29;20478;-80
2022/03/23 08:01:06;;;;;;;0.50;0.50;;;7.60;99.90;;;;;;4955649;29;20460;-81
2022/03/23 08:03:34;;;;;;;1.43;0.57;;;7.80;99.90;;;;;;4955643;29;20863;-81
2022/03/23 08:06:01;;;;;;;4.70;1.10;;;7.90;99.90;;;;;;4955342;29;20985;-81
2022/03/23 08:08:28;;;;;;;1.07;0.90;;;8.10;99.90;;;;;;4955509;29;20549;-81
2022/03/23 08:10:54;;;;;;;1.13;1.13;;;8.30;99.90;;;;;;4955637;29;20485;-81
2022/03/23 08:13:21;;;;;;;1.70;1.00;;;8.50;99.90;;;;;;4955361;29;20458;-82
2022/03/23 08:15:48;;;;;;;0.90;0.77;;;8.70;99.90;;;;;;4955500;29;20486;-82
2022/03/23 08:18:17;;;;;;;1.03;0.77;;;8.90;98.90;;;;;;4955333;29;20481;-82
2022/03/23 08:20:45;;;;;;;1.70;0.67;;;9.20;96.50;;;;;;4955495;29;20454;-81
2022/03/23 08:23:16;;;;;;;1.60;0.80;;;9.40;95.10;;;;;;4955318;29;20462;-82
2022/03/23 08:25:43;;;;;;;6.33;1.37;;;9.60;93.40;;;;;;4955899;29;20446;-81
2022/03/23 08:28:11;;;;;;;2.87;1.90;;;9.90;92.80;;;;;;4955327;29;20470;-83
2022/03/23 08:30:38;;;;;;;0.80;0.60;;;10.20;90.30;;;;;;4955408;29;20435;-81
2022/03/23 08:33:06;;;;;;;10.47;1.40;;;10.40;89.70;;;;;;4955439;29;20462;-82
2022/03/23 08:35:33;;;;;;;0.70;0.60;;;10.60;89.20;;;;;;4955414;29;20488;-84
2022/03/23 08:38:01;;;;;;;1.63;1.00;;;10.90;89.00;;;;;;4955792;29;20427;-83
2022/03/23 08:40:29;;;;;;;0.73;0.70;;;11.10;87.10;;;;;;4956178;29;20415;-82
2022/03/23 08:42:58;;;;;;;0.80;0.80;;;11.30;84.10;;;;;;4955754;29;20538;-81
2022/03/23 08:45:25;;;;;;;1.73;1.13;;;11.50;80.40;;;;;;4955399;29;20445;-81
2022/03/23 08:47:52;;;;;;;4.20;1.43;;;11.70;78.20;;;;;;4955689;29;20457;-80
2022/03/23 08:50:19;;;;;;;4.87;2.70;;;11.90;77.40;;;;;;4955935;29;20469;-81
2022/03/23 08:52:46;;;;;;;6.90;1.57;;;12.10;77.00;;;;;;4955368;29;20942;-83
2022/03/23 08:55:19;;;;;;;3.63;1.47;;;12.40;74.40;;;;;;4955271;29;20842;-83
2022/03/23 08:57:46;;;;;;;1.63;1.53;;;12.70;73.40;;;;;;4955590;29;20435;-83
2022/03/23 09:00:13;;;;;;;2.90;1.23;;;12.90;72.70;;;;;;4955788;29;20874;-83
2022/03/23 09:02:41;;;;;;;3.47;1.63;;;13.10;70.00;;;;;;4955529;29;20454;-80
2022/03/23 09:05:10;;;;;;;5.93;1.33;;;13.50;68.00;;;;;;4957266;28;20443;-82
2022/03/23 09:07:37;;;;;;;3.40;1.40;;;13.90;68.20;;;;;;4959425;29;20942;-84
2022/03/23 09:10:05;;;;;;;2.60;1.97;;;14.80;68.20;;;;;;4959117;29;20470;-84
2022/03/23 09:12:33;;;;;;;1.93;1.73;;;16.10;63.80;;;;;;4959319;29;20617;-84
2022/03/23 09:15:00;;;;;;;3.17;1.50;;;17.70;59.50;;;;;;4959410;29;20486;-84
2022/03/23 09:17:27;;;;;;;4.10;2.33;;;19.50;54.20;;;;;;4959260;29;20460;-84
2022/03/23 09:19:54;;;;;;;6.20;2.43;;;21.20;50.40;;;;;;4959250;29;20472;-84
2022/03/23 09:22:21;;;;;;;1.88;1.67;;;22.50;46.10;;;;;;4959481;29;21124;-84
2022/03/23 09:24:48;;;;;;;5.55;3.40;;;23.40;43.20;;;;;;4959249;29;20202;-84
2022/03/23 09:27:15;;;;;;;7.22;3.75;;;24.00;40.90;;;;;;4958857;29;20692;-82
2022/03/23 09:29:44;;;;;;;8.15;3.42;;;24.70;39.50;;;;;;4958490;29;20236;-82
2022/03/23 09:32:12;;;;;;;3.58;2.92;;;25.40;38.20;;;;;;4959335;29;20206;-84
2022/03/23 09:34:39;;;;;;;4.97;3.17;;;25.80;37.30;;;;;;4959156;29;20717;-83
2022/03/23 09:39:51;;;;;;;3.60;3.30;;;26.40;36.20;;;;;;4958063;29;20652;-78
2022/03/23 09:42:18;;;;;;;6.22;3.40;;;26.70;33.90;;;;;;4958909;29;20195;-81
2022/03/23 09:44:47;;;;;;;7.47;3.78;;;26.90;34.30;;;;;;4958656;29;20198;-80
2022/03/23 09:47:14;;;;;;;8.88;4.07;;;27.20;33.30;;;;;;4958810;29;20614;-84
2022/03/23 09:49:42;;;;;;;5.95;3.67;;;27.40;33.20;;;;;;4958842;29;20261;-81
2022/03/23 09:52:09;;;;;;;5.03;2.53;;;27.50;31.80;;;;;;4958570;29;20203;-81
2022/03/23 09:54:35;;;;;;;5.15;2.90;;;27.80;30.90;;;;;;4958467;29;20213;-81
2022/03/23 09:57:04;;;;;;;6.60;3.72;;;28.00;31.20;;;;;;4958649;29;20202;-81
2022/03/23 09:59:30;;;;;;;6.75;3.38;;;28.30;30.20;;;;;;4958457;29;20313;-83
2022/03/23 10:02:30;;;;;;;5.15;3.38;;;28.10;31.00;;;;;;4959678;29;20207;-82
2022/03/23 10:05:33;;;;;;;7.05;4.07;;;27.80;30.60;;;;;;4958984;29;20215;-87
2022/03/23 10:08:29;;;;;;;6.35;3.50;;;27.70;30.60;;;;;;4957973;29;20217;-82
2022/03/23 10:11:36;;;;;;;6.18;3.15;;;27.60;30.10;;;;;;4958496;29;20204;-80
2022/03/23 10:14:40;;;;;;;4.45;3.38;;;27.60;30.10;;;;;;4958555;29;20192;-83
2022/03/23 10:17:30;;;;;;;6.53;3.55;;;27.90;29.80;;;;;;4959013;28;20199;-82
2022/03/23 10:19:57;;;;;;;5.05;3.05;;;27.70;29.50;;;;;;4961611;29;20225;-81
2022/03/23 10:22:28;;;;;;;4.22;2.88;;;27.50;28.90;;;;;;4959727;29;20593;-81
2022/03/23 10:24:56;;;;;;;5.57;3.08;;;27.50;27.20;;;;;;4957934;29;20272;-80
2022/03/23 10:27:25;;;;;;;1.83;1.50;;;28.00;25.80;;;;;;4959437;29;20222;-81
2022/03/23 10:29:53;;;;;;;9.55;1.88;;;27.90;24.40;;;;;;4959976;29;20225;-82
2022/03/23 10:32:21;;;;;;;4.10;2.10;;;27.50;24.60;;;;;;4961040;29;20191;-81
2022/03/23 10:34:50;;;;;;;2.72;2.00;;;26.90;24.90;;;;;;4961137;29;20210;-82
2022/03/23 10:37:23;;;;;;;3.00;2.13;;;26.50;25.60;;;;;;4959441;29;20233;-81
2022/03/23 10:39:50;;;;;;;2.17;1.52;;;26.30;25.30;;;;;;4958179;29;20238;-82
2022/03/23 10:42:22;;;;;;;4.38;2.28;;;26.60;25.00;;;;;;4959731;29;20729;-82
2022/03/23 10:44:49;;;;;;;4.65;2.45;;;27.40;23.70;;;;;;4961256;29;20563;-81
2022/03/23 10:47:38;;;;;;;2.13;1.92;;;28.30;23.70;;;;;;4957299;29;20209;-81
2022/03/23 10:50:10;;;;;;;5.65;2.20;;;29.60;23.10;;;;;;4955228;29;20768;-81
2022/03/23 10:52:48;;;;;;;2.65;1.58;;;30.00;22.80;;;;;;4957145;29;20207;-80
2022/03/23 10:55:16;;;;;;;2.47;1.80;;;30.30;23.40;;;;;;4961109;29;20213;-82
2022/03/23 10:58:26;;;;;;;1.85;1.60;;;31.20;21.30;;;;;;4959595;29;20198;-81
2022/03/23 11:01:02;;;;;;;5.55;1.70;;;31.60;21.40;;;;;;4964258;29;20265;-82
2022/03/23 11:03:40;;;;;;;3.22;2.10;;;31.70;21.20;;;;;;4957583;29;20200;-82
2022/03/23 11:06:09;;;;;;;5.40;2.17;;;31.40;20.70;;;;;;4959440;29;20192;-81
2022/03/23 11:08:35;;;;;;;2.65;1.70;;;30.10;21.40;;;;;;4957816;29;20229;-82
2022/03/23 11:16:44;;;;;;;3.63;2.08;;;26.50;24.30;;;;;;4956981;29;20625;-82
2022/03/23 11:19:18;;;;;;;2.55;2.05;;;25.20;25.00;;;;;;4956611;29;20237;-81
2022/03/23 11:22:01;;;;;;;2.35;2.00;;;24.40;25.00;;;;;;4957926;29;20209;-81
2022/03/23 11:24:29;;;;;;;4.93;2.85;;;23.50;25.80;;;;;;4956418;29;20217;-81
2022/03/23 11:26:57;;;;;;;2.90;2.15;;;23.10;25.90;;;;;;4956740;28;20198;-81
2022/03/23 11:29:25;;;;;;;3.17;1.93;;;22.50;24.80;;;;;;4955710;29;20717;-81
2022/03/23 11:31:53;;;;;;;3.13;1.87;;;22.10;24.70;;;;;;4956808;29;20206;-81
2022/03/23 11:34:22;;;;;;;1.30;1.20;;;21.60;24.60;;;;;;4956544;29;20237;-81
2022/03/23 11:36:51;;;;;;;1.70;1.40;;;21.20;24.90;;;;;;4956157;29;20496;-80
2022/03/23 11:39:20;;;;;;;1.80;1.60;;;21.00;25.60;;;;;;4956016;29;20919;-81
2022/03/23 11:41:47;;;;;;;3.40;1.67;;;20.80;24.80;;;;;;4956663;29;20826;-81
2022/03/23 11:44:16;;;;;;;1.50;1.23;;;20.50;25.20;;;;;;4956410;29;20454;-81
2022/03/23 11:46:45;;;;;;;1.93;1.50;;;20.30;24.30;;;;;;4956568;29;20478;-81
2022/03/23 11:49:23;;;;;;;2.90;1.43;;;19.90;24.50;;;;;;4956544;29;20470;-82
2022/03/23 11:52:12;;;;;;;2.53;1.10;;;19.80;24.80;;;;;;4956358;29;20434;-81
2022/03/23 11:58:10;;;;;;;6.23;1.37;;;19.30;26.80;;;;;;4956469;29;20538;-80
2022/03/23 12:00:42;;;;;;;4.93;1.67;;;19.30;25.60;;;;;;4956382;29;20489;-82
2022/03/23 12:03:11;;;;;;;1.97;1.50;;;19.20;26.10;;;;;;4956155;29;20807;-81
2022/03/23 12:05:49;;;;;;;1.73;1.30;;;19.10;26.20;;;;;;4956142;29;20489;-81
2022/03/23 12:08:49;;;;;;;1.00;0.90;;;19.00;25.50;;;;;;4961430;29;20470;-81
2022/03/23 12:11:32;;;;;;;0.80;0.80;;;18.80;26.60;;;;;;4957928;29;20473;-81
2022/03/23 12:14:00;;;;;;;2.93;1.43;;;18.90;26.10;;;;;;4955827;29;20438;-81
2022/03/23 12:17:02;;;;;;;11.10;1.10;;;18.80;25.80;;;;;;4961412;29;20478;-82
2022/03/23 12:19:33;;;;;;;0.70;0.70;;;18.70;25.60;;;;;;4959556;29;20482;-82
2022/03/23 12:22:14;;;;;;;2.30;1.23;;;18.40;26.10;;;;;;4958582;29;20426;-81
2022/03/23 12:24:47;;;;;;;3.23;1.43;;;18.30;25.40;;;;;;4962374;29;20431;-82
2022/03/23 12:27:22;;;;;;;2.20;1.20;;;18.10;25.80;;;;;;4956105;29;20437;-81
2022/03/23 12:29:51;;;;;;;1.27;0.77;;;17.90;25.60;;;;;;4955173;29;20985;-81
2022/03/23 12:32:17;;;;;;;3.57;1.73;;;17.80;25.70;;;;;;4955554;29;20454;-80
2022/03/23 12:34:46;;;;;;;1.80;1.10;;;17.70;26.10;;;;;;4955467;29;20450;-81
2022/03/23 12:37:15;;;;;;;2.07;1.30;;;17.60;26.80;;;;;;4955538;29;20486;-80
2022/03/23 12:39:44;;;;;;;1.60;0.90;;;17.50;26.70;;;;;;4957745;28;20521;-80
2022/03/23 12:42:19;;;;;;;3.40;1.20;;;17.40;26.40;;;;;;4961431;28;20462;-80
2022/03/23 12:44:48;;;;;;;1.17;0.97;;;17.30;26.20;;;;;;4961880;29;20457;-80
2022/03/23 12:47:18;;;;;;;1.40;1.30;;;17.20;27.00;;;;;;4967715;29;20457;-81
2022/03/23 12:58:10;;;;;;;1.90;1.00;;;16.80;27.90;;;;;;4961688;29;20413;-80
2022/03/23 13:00:40;;;;;;;1.73;1.30;;;16.90;28.30;;;;;;4962199;28;20449;-81
2022/03/23 13:03:51;;;;;;;4.10;2.10;;;17.00;27.50;;;;;;4967768;29;20450;-79
2022/03/23 13:06:21;;;;;;;1.53;1.23;;;16.90;28.20;;;;;;4961592;29;20452;-80
2022/03/23 13:08:49;;;;;;;2.57;1.00;;;17.00;27.90;;;;;;4962600;29;20469;-80
2022/03/23 13:11:20;;;;;;;1.63;1.33;;;17.00;28.00;;;;;;4961541;29;20458;-80
2022/03/23 13:13:50;;;;;;;2.10;1.30;;;16.90;28.50;;;;;;4961256;28;20430;-81
2022/03/23 13:16:20;;;;;;;3.03;1.50;;;16.90;28.10;;;;;;4961396;29;20562;-81
2022/03/23 13:18:47;;;;;;;3.20;0.90;;;16.90;28.10;;;;;;4961842;29;20522;-80
2022/03/23 13:21:16;;;;;;;1.67;0.93;;;16.90;27.20;;;;;;4961591;29;20813;-81
2022/03/23 13:23:47;;;;;;;1.67;0.77;;;16.80;27.10;;;;;;4961663;29;20438;-81
2022/03/23 13:26:16;;;;;;;3.23;1.00;;;16.80;27.40;;;;;;4961578;28;20786;-80
2022/03/23 13:28:48;;;;;;;1.37;1.03;;;16.70;27.40;;;;;;4961461;29;20473;-80
2022/03/23 13:31:16;;;;;;;1.80;1.10;;;16.70;27.70;;;;;;4961118;29;20430;-80